createdAt,value
2016-09-07T00:00:22.324Z,1016.38
2016-09-07T00:01:22.315Z,1016.38
2016-09-07T00:02:22.306Z,1016.34
2016-09-07T00:03:22.301Z,1016.31
2016-09-07T00:04:22.290Z,1016.31
2016-09-07T00:05:22.283Z,1016.28
2016-09-07T00:06:22.270Z,1016.26
2016-09-07T00:07:22.264Z,1016.28
2016-09-07T00:08:22.254Z,1016.32
2016-09-07T00:09:22.243Z,1016.3
2016-09-07T00:10:22.238Z,1016.27
2016-09-07T00:11:22.226Z,1016.28
2016-09-07T00:12:22.218Z,1016.22
2016-09-07T00:13:22.208Z,1016.23
2016-09-07T00:14:22.200Z,1016.19
2016-09-07T00:15:22.191Z,1016.19
2016-09-07T00:16:22.182Z,1016.15
2016-09-07T00:17:22.174Z,1016.14
2016-09-07T00:18:22.166Z,1016.13
2016-09-07T00:19:22.156Z,1016.11
2016-09-07T00:20:22.147Z,1016.14
2016-09-07T00:21:22.138Z,1016.13
2016-09-07T00:22:22.126Z,1016.13
2016-09-07T00:23:22.119Z,1016.1
2016-09-07T00:24:22.110Z,1016.1
2016-09-07T00:25:22.106Z,1016.09
2016-09-07T00:26:22.091Z,1016.08
2016-09-07T00:27:22.084Z,1016.06
2016-09-07T00:28:22.076Z,1016.03
2016-09-07T00:29:22.066Z,1016.06
2016-09-07T00:30:22.059Z,1016.05
2016-09-07T00:31:22.049Z,1016.05
2016-09-07T00:32:22.047Z,1016.05
2016-09-07T00:33:22.030Z,1016.02
2016-09-07T00:34:22.021Z,1016.03
2016-09-07T00:35:22.023Z,1016.03
2016-09-07T00:36:22.004Z,1015.96
2016-09-07T00:37:22.004Z,1015.95
2016-09-07T00:38:21.988Z,1015.96
2016-09-07T00:39:21.978Z,1015.92
2016-09-07T00:40:21.968Z,1015.94
2016-09-07T00:41:21.958Z,1015.93
2016-09-07T00:42:21.951Z,1015.88
2016-09-07T00:43:21.943Z,1015.9
2016-09-07T00:44:21.932Z,1015.91
2016-09-07T00:45:21.923Z,1015.91
2016-09-07T00:46:21.913Z,1015.91
2016-09-07T00:47:21.908Z,1015.9
2016-09-07T00:48:21.895Z,1015.9
2016-09-07T00:49:21.888Z,1015.93
2016-09-07T00:50:21.877Z,1015.91
2016-09-07T00:51:21.870Z,1015.93
2016-09-07T00:52:21.858Z,1015.92
2016-09-07T00:53:21.856Z,1015.94
2016-09-07T00:54:21.842Z,1015.91
2016-09-07T00:55:21.832Z,1015.91
2016-09-07T00:56:21.823Z,1015.91
2016-09-07T00:57:21.815Z,1015.92
2016-09-07T00:58:21.807Z,1015.93
2016-09-07T00:59:21.796Z,1015.91
2016-09-07T01:00:21.789Z,1015.92
2016-09-07T01:01:21.778Z,1015.93
2016-09-07T01:02:21.767Z,1015.92
2016-09-07T01:03:21.761Z,1015.9
2016-09-07T01:04:21.750Z,1015.91
2016-09-07T01:05:21.743Z,1015.91
2016-09-07T01:06:21.731Z,1015.9
2016-09-07T01:07:21.723Z,1015.93
2016-09-07T01:08:21.717Z,1015.94
2016-09-07T01:09:21.708Z,1015.91
2016-09-07T01:10:21.697Z,1015.93
2016-09-07T01:11:21.687Z,1015.93
2016-09-07T01:12:21.676Z,1015.93
2016-09-07T01:13:21.669Z,1015.94
2016-09-07T01:14:21.658Z,1015.92
2016-09-07T01:15:21.648Z,1015.94
2016-09-07T01:16:21.642Z,1015.9
2016-09-07T01:17:21.631Z,1015.95
2016-09-07T01:18:21.626Z,1015.93
2016-09-07T01:19:21.613Z,1015.92
2016-09-07T01:20:21.605Z,1015.95
2016-09-07T01:21:21.595Z,1015.92
2016-09-07T01:22:21.586Z,1015.92
2016-09-07T01:23:21.577Z,1015.92
2016-09-07T01:24:21.571Z,1015.88
2016-09-07T01:25:21.560Z,1015.93
2016-09-07T01:26:21.550Z,1015.96
2016-09-07T01:27:21.541Z,1015.9
2016-09-07T01:28:21.532Z,1015.91
2016-09-07T01:29:21.520Z,1015.92
2016-09-07T01:30:21.513Z,1015.89
2016-09-07T01:31:21.517Z,1015.86
2016-09-07T01:32:21.494Z,1015.86
2016-09-07T01:33:21.486Z,1015.82
2016-09-07T01:34:21.476Z,1015.87
2016-09-07T01:35:21.468Z,1015.87
2016-09-07T01:36:21.461Z,1015.86
2016-09-07T01:37:21.449Z,1015.89
2016-09-07T01:38:21.439Z,1015.87
2016-09-07T01:39:21.428Z,1015.88
2016-09-07T01:40:21.426Z,1015.89
2016-09-07T01:41:21.415Z,1015.88
2016-09-07T01:42:21.404Z,1015.84
2016-09-07T01:43:21.390Z,1015.82
2016-09-07T01:44:21.383Z,1015.84
2016-09-07T01:45:21.374Z,1015.79
2016-09-07T01:46:21.363Z,1015.77
2016-09-07T01:47:21.355Z,1015.79
2016-09-07T01:48:21.345Z,1015.78
2016-09-07T01:49:21.349Z,1015.78
2016-09-07T01:50:21.327Z,1015.78
2016-09-07T01:51:21.317Z,1015.77
2016-09-07T01:52:21.308Z,1015.77
2016-09-07T01:53:21.302Z,1015.77
2016-09-07T01:54:21.291Z,1015.76
2016-09-07T01:55:21.279Z,1015.76
2016-09-07T01:56:21.273Z,1015.72
2016-09-07T01:57:21.261Z,1015.68
2016-09-07T01:58:21.253Z,1015.69
2016-09-07T01:59:21.244Z,1015.68
2016-09-07T02:00:21.234Z,1015.65
2016-09-07T02:01:21.223Z,1015.67
2016-09-07T02:02:21.217Z,1015.65
2016-09-07T02:03:21.204Z,1015.65
2016-09-07T02:04:21.198Z,1015.62
2016-09-07T02:05:21.186Z,1015.63
2016-09-07T02:06:21.176Z,1015.62
2016-09-07T02:07:21.169Z,1015.59
2016-09-07T02:08:21.158Z,1015.59
2016-09-07T02:09:21.150Z,1015.58
2016-09-07T02:10:21.141Z,1015.59
2016-09-07T02:11:21.130Z,1015.59
2016-09-07T02:12:21.119Z,1015.6
2016-09-07T02:13:21.111Z,1015.6
2016-09-07T02:14:21.102Z,1015.64
2016-09-07T02:15:21.295Z,1015.59
2016-09-07T02:16:21.082Z,1015.61
2016-09-07T02:17:21.072Z,1015.6
2016-09-07T02:18:21.065Z,1015.53
2016-09-07T02:19:21.055Z,1015.55
2016-09-07T02:20:21.049Z,1015.54
2016-09-07T02:21:21.037Z,1015.53
2016-09-07T02:22:21.026Z,1015.55
2016-09-07T02:23:21.019Z,1015.53
2016-09-07T02:24:21.012Z,1015.57
2016-09-07T02:25:20.998Z,1015.56
2016-09-07T02:26:20.988Z,1015.54
2016-09-07T02:27:20.979Z,1015.49
2016-09-07T02:28:20.971Z,1015.51
2016-09-07T02:29:20.962Z,1015.52
2016-09-07T02:30:20.952Z,1015.48
2016-09-07T02:31:20.942Z,1015.47
2016-09-07T02:32:20.933Z,1015.49
2016-09-07T02:33:20.926Z,1015.47
2016-09-07T02:34:20.913Z,1015.45
2016-09-07T02:35:20.909Z,1015.44
2016-09-07T02:36:20.894Z,1015.44
2016-09-07T02:37:20.885Z,1015.41
2016-09-07T02:38:20.875Z,1015.39
2016-09-07T02:39:20.865Z,1015.41
2016-09-07T02:40:20.855Z,1015.38
2016-09-07T02:41:20.845Z,1015.4
2016-09-07T02:42:20.839Z,1015.43
2016-09-07T02:43:20.831Z,1015.39
2016-09-07T02:44:20.816Z,1015.41
2016-09-07T02:45:20.813Z,1015.41
2016-09-07T02:46:20.799Z,1015.4
2016-09-07T02:47:20.790Z,1015.42
2016-09-07T02:48:20.779Z,1015.42
2016-09-07T02:49:20.770Z,1015.41
2016-09-07T02:50:20.759Z,1015.41
2016-09-07T02:51:20.751Z,1015.42
2016-09-07T02:52:20.740Z,1015.42
2016-09-07T02:53:20.731Z,1015.42
2016-09-07T02:54:20.721Z,1015.4
2016-09-07T02:55:20.713Z,1015.44
2016-09-07T02:56:20.702Z,1015.49
2016-09-07T02:57:20.691Z,1015.48
2016-09-07T02:58:20.683Z,1015.45
2016-09-07T02:59:20.672Z,1015.46
2016-09-07T03:00:20.663Z,1015.44
2016-09-07T03:01:20.653Z,1015.44
2016-09-07T03:02:20.642Z,1015.39
2016-09-07T03:03:20.632Z,1015.4
2016-09-07T03:04:20.624Z,1015.38
2016-09-07T03:05:20.622Z,1015.36
2016-09-07T03:06:20.604Z,1015.36
2016-09-07T03:07:20.593Z,1015.35
2016-09-07T03:08:20.604Z,1015.32
2016-09-07T03:09:20.580Z,1015.33
2016-09-07T03:10:20.567Z,1015.3
2016-09-07T03:11:20.556Z,1015.31
2016-09-07T03:12:20.545Z,1015.3
2016-09-07T03:13:20.536Z,1015.27
2016-09-07T03:14:20.527Z,1015.26
2016-09-07T03:15:20.515Z,1015.31
2016-09-07T03:16:20.506Z,1015.25
2016-09-07T03:17:20.498Z,1015.28
2016-09-07T03:18:20.486Z,1015.26
2016-09-07T03:19:20.477Z,1015.28
2016-09-07T03:20:20.471Z,1015.27
2016-09-07T03:21:20.457Z,1015.31
2016-09-07T03:22:20.448Z,1015.27
2016-09-07T03:23:20.438Z,1015.34
2016-09-07T03:24:20.429Z,1015.27
2016-09-07T03:25:20.416Z,1015.28
2016-09-07T03:26:20.409Z,1015.24
2016-09-07T03:27:20.399Z,1015.23
2016-09-07T03:28:20.391Z,1015.23
2016-09-07T03:29:20.379Z,1015.24
2016-09-07T03:30:20.368Z,1015.22
2016-09-07T03:31:20.362Z,1015.19
2016-09-07T03:32:20.347Z,1015.21
2016-09-07T03:33:20.339Z,1015.18
2016-09-07T03:34:20.329Z,1015.17
2016-09-07T03:35:20.319Z,1015.16
2016-09-07T03:36:20.315Z,1015.15
2016-09-07T03:37:20.301Z,1015.19
2016-09-07T03:38:20.292Z,1015.2
2016-09-07T03:39:20.282Z,1015.17
2016-09-07T03:40:20.272Z,1015.19
2016-09-07T03:41:20.259Z,1015.15
2016-09-07T03:42:20.251Z,1015.18
2016-09-07T03:43:20.240Z,1015.19
2016-09-07T03:44:20.231Z,1015.15
2016-09-07T03:45:20.220Z,1015.13
2016-09-07T03:46:20.208Z,1015.18
2016-09-07T03:47:20.204Z,1015.16
2016-09-07T03:48:20.192Z,1015.13
2016-09-07T03:49:20.180Z,1015.16
2016-09-07T03:50:20.171Z,1015.13
2016-09-07T03:51:20.163Z,1015.15
2016-09-07T03:52:20.149Z,1015.15
2016-09-07T03:53:20.140Z,1015.13
2016-09-07T03:54:20.129Z,1015.16
2016-09-07T03:55:20.127Z,1015.15
2016-09-07T03:56:20.110Z,1015.13
2016-09-07T03:57:20.105Z,1015.11
2016-09-07T03:58:20.091Z,1015.1
2016-09-07T03:59:20.079Z,1015.08
2016-09-07T04:00:20.071Z,1015.08
2016-09-07T04:01:20.060Z,1015.07
2016-09-07T04:02:20.059Z,1015.07
2016-09-07T04:03:20.040Z,1015.05
2016-09-07T04:04:20.030Z,1015.07
2016-09-07T04:05:20.019Z,1015.09
2016-09-07T04:06:20.009Z,1015.04
2016-09-07T04:07:19.999Z,1015.09
2016-09-07T04:08:19.990Z,1015.06
2016-09-07T04:09:19.978Z,1015.05
2016-09-07T04:10:19.969Z,1015.06
2016-09-07T04:11:19.958Z,1015.03
2016-09-07T04:12:19.948Z,1015.06
2016-09-07T04:13:19.937Z,1015.05
2016-09-07T04:14:19.928Z,1015.05
2016-09-07T04:15:20.119Z,1014.99
2016-09-07T04:16:19.908Z,1015.01
2016-09-07T04:17:19.897Z,1015
2016-09-07T04:18:19.888Z,1014.99
2016-09-07T04:19:19.884Z,1015
2016-09-07T04:20:19.869Z,1015.01
2016-09-07T04:21:19.855Z,1014.99
2016-09-07T04:22:19.847Z,1015.03
2016-09-07T04:23:19.836Z,1015.03
2016-09-07T04:24:19.827Z,1015
2016-09-07T04:25:19.816Z,1015
2016-09-07T04:26:19.807Z,1014.94
2016-09-07T04:27:19.798Z,1014.97
2016-09-07T04:28:19.786Z,1014.99
2016-09-07T04:29:19.783Z,1014.96
2016-09-07T04:30:19.770Z,1014.98
2016-09-07T04:31:19.761Z,1014.98
2016-09-07T04:32:19.748Z,1014.99
2016-09-07T04:33:19.734Z,1014.96
2016-09-07T04:34:19.725Z,1014.95
2016-09-07T04:35:19.713Z,1014.96
2016-09-07T04:36:19.704Z,1014.96
2016-09-07T04:37:19.695Z,1014.93
2016-09-07T04:38:19.700Z,1014.92
2016-09-07T04:39:19.676Z,1014.94
2016-09-07T04:40:19.663Z,1014.96
2016-09-07T04:41:19.653Z,1014.97
2016-09-07T04:42:19.643Z,1014.97
2016-09-07T04:43:19.634Z,1015.03
2016-09-07T04:44:19.624Z,1014.99
2016-09-07T04:45:19.611Z,1015.01
2016-09-07T04:46:19.600Z,1015.01
2016-09-07T04:47:19.591Z,1015.05
2016-09-07T04:48:19.580Z,1015.02
2016-09-07T04:49:19.571Z,1015.06
2016-09-07T04:50:19.563Z,1015.07
2016-09-07T04:51:19.551Z,1015.09
2016-09-07T04:52:19.542Z,1015.09
2016-09-07T04:53:19.530Z,1015.08
2016-09-07T04:54:19.523Z,1015.02
2016-09-07T04:55:19.515Z,1015.07
2016-09-07T04:56:19.499Z,1015.06
2016-09-07T04:57:19.490Z,1015.07
2016-09-07T04:58:19.501Z,1015.06
2016-09-07T04:59:19.468Z,1015.07
2016-09-07T05:00:19.476Z,1015.06
2016-09-07T05:01:19.458Z,1015.07
2016-09-07T05:02:19.438Z,1015.09
2016-09-07T05:03:19.431Z,1015.15
2016-09-07T05:04:19.419Z,1015.14
2016-09-07T05:05:19.407Z,1015.14
2016-09-07T05:06:19.395Z,1015.15
2016-09-07T05:07:19.386Z,1015.22
2016-09-07T05:08:19.377Z,1015.18
2016-09-07T05:09:19.364Z,1015.19
2016-09-07T05:10:19.355Z,1015.15
2016-09-07T05:11:19.344Z,1015.18
2016-09-07T05:12:19.334Z,1015.15
2016-09-07T05:13:19.326Z,1015.16
2016-09-07T05:14:19.315Z,1015.18
2016-09-07T05:15:19.304Z,1015.16
2016-09-07T05:16:19.294Z,1015.17
2016-09-07T05:17:19.288Z,1015.14
2016-09-07T05:18:19.273Z,1015.19
2016-09-07T05:19:19.265Z,1015.16
2016-09-07T05:20:19.251Z,1015.15
2016-09-07T05:21:19.243Z,1015.18
2016-09-07T05:22:19.233Z,1015.15
2016-09-07T05:23:19.221Z,1015.1
2016-09-07T05:24:19.213Z,1015.18
2016-09-07T05:25:19.203Z,1015.14
2016-09-07T05:26:19.192Z,1015.17
2016-09-07T05:27:19.181Z,1015.21
2016-09-07T05:28:19.169Z,1015.19
2016-09-07T05:29:19.159Z,1015.17
2016-09-07T05:30:19.148Z,1015.16
2016-09-07T05:31:19.140Z,1015.14
2016-09-07T05:32:19.133Z,1015.16
2016-09-07T05:33:19.119Z,1015.14
2016-09-07T05:34:19.108Z,1015.13
2016-09-07T05:35:19.099Z,1015.11
2016-09-07T05:36:19.089Z,1015.1
2016-09-07T05:37:19.079Z,1015.14
2016-09-07T05:38:19.070Z,1015.14
2016-09-07T05:39:19.061Z,1015.12
2016-09-07T05:40:19.049Z,1015.15
2016-09-07T05:41:19.038Z,1015.13
2016-09-07T05:42:19.027Z,1015.12
2016-09-07T05:43:19.020Z,1015.09
2016-09-07T05:44:19.008Z,1015.12
2016-09-07T05:45:18.997Z,1015.12
2016-09-07T05:46:18.994Z,1015.19
2016-09-07T05:47:18.980Z,1015.14
2016-09-07T05:48:18.968Z,1015.14
2016-09-07T05:49:18.958Z,1015.17
2016-09-07T05:50:18.948Z,1015.1
2016-09-07T05:51:18.936Z,1015.12
2016-09-07T05:52:18.926Z,1015.1
2016-09-07T05:53:18.917Z,1015.14
2016-09-07T05:54:18.907Z,1015.1
2016-09-07T05:55:18.897Z,1015.12
2016-09-07T05:56:18.886Z,1015.17
2016-09-07T05:57:18.878Z,1015.15
2016-09-07T05:58:18.864Z,1015.16
2016-09-07T05:59:18.857Z,1015.17
2016-09-07T06:00:18.846Z,1015.16
2016-09-07T06:01:18.837Z,1015.13
2016-09-07T06:02:18.826Z,1015.14
2016-09-07T06:03:18.816Z,1015.13
2016-09-07T06:04:18.805Z,1015.09
2016-09-07T06:05:18.796Z,1015.1
2016-09-07T06:06:18.787Z,1015.05
2016-09-07T06:07:18.777Z,1015.05
2016-09-07T06:08:18.764Z,1015.06
2016-09-07T06:09:18.756Z,1015.03
2016-09-07T06:10:18.745Z,1015.02
2016-09-07T06:11:18.737Z,1015.05
2016-09-07T06:12:18.726Z,1015.04
2016-09-07T06:13:18.715Z,1015.04
2016-09-07T06:14:18.705Z,1015.05
2016-09-07T06:15:18.900Z,1015.05
2016-09-07T06:16:18.687Z,1015.06
2016-09-07T06:17:18.678Z,1015.03
2016-09-07T06:18:18.667Z,1015.03
2016-09-07T06:19:18.658Z,1015.07
2016-09-07T06:20:18.646Z,1015.07
2016-09-07T06:21:18.638Z,1015.05
2016-09-07T06:22:18.628Z,1015.07
2016-09-07T06:23:18.619Z,1015.1
2016-09-07T06:24:18.607Z,1015.11
2016-09-07T06:25:18.600Z,1015.11
2016-09-07T06:26:18.592Z,1015.07
2016-09-07T06:27:18.580Z,1015.12
2016-09-07T06:28:18.570Z,1015.09
2016-09-07T06:29:18.561Z,1015.11
2016-09-07T06:30:18.551Z,1015.12
2016-09-07T06:31:18.542Z,1015.16
2016-09-07T06:32:18.531Z,1015.1
2016-09-07T06:33:18.524Z,1015.13
2016-09-07T06:34:18.513Z,1015.13
2016-09-07T06:35:18.504Z,1015.12
2016-09-07T06:36:18.493Z,1015.09
2016-09-07T06:37:18.484Z,1015.1
2016-09-07T06:38:18.475Z,1015.15
2016-09-07T06:39:18.466Z,1015.17
2016-09-07T06:40:18.455Z,1015.14
2016-09-07T06:41:18.448Z,1015.18
2016-09-07T06:42:18.438Z,1015.17
2016-09-07T06:43:18.428Z,1015.17
2016-09-07T06:44:18.416Z,1015.2
2016-09-07T06:45:18.409Z,1015.15
2016-09-07T06:46:18.399Z,1015.13
2016-09-07T06:47:18.394Z,1015.14
2016-09-07T06:48:18.382Z,1015.13
2016-09-07T06:49:18.372Z,1015.17
2016-09-07T06:50:18.363Z,1015.12
2016-09-07T06:51:18.355Z,1015.18
2016-09-07T06:52:18.346Z,1015.11
2016-09-07T06:53:18.337Z,1015.08
2016-09-07T06:54:18.326Z,1015.09
2016-09-07T06:55:18.316Z,1015.12
2016-09-07T06:56:18.308Z,1015.11
2016-09-07T06:57:18.299Z,1015.1
2016-09-07T06:58:18.292Z,1015.12
2016-09-07T06:59:18.282Z,1015.14
2016-09-07T07:00:18.272Z,1015.12
2016-09-07T07:01:18.263Z,1015.12
2016-09-07T07:02:18.256Z,1015.12
2016-09-07T07:03:18.247Z,1015.09
2016-09-07T07:04:18.240Z,1015.11
2016-09-07T07:05:18.227Z,1015.07
2016-09-07T07:06:18.221Z,1015.1
2016-09-07T07:07:18.213Z,1015.09
2016-09-07T07:08:18.203Z,1015.09
2016-09-07T07:09:18.193Z,1015.1
2016-09-07T07:10:18.184Z,1015.11
2016-09-07T07:11:18.176Z,1015.11
2016-09-07T07:12:18.168Z,1015.09
2016-09-07T07:13:18.158Z,1015.12
2016-09-07T07:14:18.150Z,1015.13
2016-09-07T07:15:18.145Z,1015.13
2016-09-07T07:16:18.132Z,1015.12
2016-09-07T07:17:18.125Z,1015.14
2016-09-07T07:18:18.116Z,1015.06
2016-09-07T07:19:18.106Z,1015.05
2016-09-07T07:20:18.097Z,1015.02
2016-09-07T07:21:18.090Z,1015.03
2016-09-07T07:22:18.081Z,1015.03
2016-09-07T07:23:18.072Z,1015.03
2016-09-07T07:24:18.066Z,1015.01
2016-09-07T07:25:18.056Z,1015.02
2016-09-07T07:26:18.049Z,1014.99
2016-09-07T07:27:18.038Z,1014.98
2016-09-07T07:28:18.032Z,1014.97
2016-09-07T07:29:18.024Z,1014.95
2016-09-07T07:30:18.014Z,1014.99
2016-09-07T07:31:18.006Z,1014.97
2016-09-07T07:32:17.998Z,1015.02
2016-09-07T07:33:17.989Z,1015.04
2016-09-07T07:34:17.981Z,1015.03
2016-09-07T07:35:17.971Z,1015.01
2016-09-07T07:36:17.963Z,1014.99
2016-09-07T07:37:17.956Z,1014.99
2016-09-07T07:38:17.948Z,1014.96
2016-09-07T07:39:17.939Z,1014.98
2016-09-07T07:40:17.930Z,1014.99
2016-09-07T07:41:17.923Z,1014.96
2016-09-07T07:42:17.916Z,1014.99
2016-09-07T07:43:17.907Z,1014.93
2016-09-07T07:44:17.905Z,1014.92
2016-09-07T07:45:17.890Z,1014.94
2016-09-07T07:46:17.883Z,1014.93
2016-09-07T07:47:17.874Z,1014.89
2016-09-07T07:48:17.866Z,1014.91
2016-09-07T07:49:17.858Z,1014.88
2016-09-07T07:50:17.851Z,1014.94
2016-09-07T07:51:17.844Z,1014.95
2016-09-07T07:52:17.835Z,1014.94
2016-09-07T07:53:17.826Z,1014.93
2016-09-07T07:54:17.818Z,1014.92
2016-09-07T07:55:17.810Z,1014.95
2016-09-07T07:56:17.802Z,1014.95
2016-09-07T07:57:17.795Z,1014.93
2016-09-07T07:58:17.788Z,1014.91
2016-09-07T07:59:17.778Z,1014.92
2016-09-07T08:00:17.769Z,1014.93
2016-09-07T08:01:17.765Z,1014.9
2016-09-07T08:02:17.755Z,1014.9
2016-09-07T08:03:17.747Z,1014.88
2016-09-07T08:04:17.742Z,1014.83
2016-09-07T08:05:17.733Z,1014.82
2016-09-07T08:06:17.723Z,1014.86
2016-09-07T08:07:17.717Z,1014.82
2016-09-07T08:08:17.710Z,1014.79
2016-09-07T08:09:17.702Z,1014.81
2016-09-07T08:10:17.693Z,1014.84
2016-09-07T08:11:17.686Z,1014.84
2016-09-07T08:12:17.680Z,1014.87
2016-09-07T08:13:17.673Z,1014.88
2016-09-07T08:14:17.664Z,1014.89
2016-09-07T08:15:17.859Z,1014.9
2016-09-07T08:16:17.651Z,1014.91
2016-09-07T08:17:17.642Z,1014.91
2016-09-07T08:18:17.635Z,1014.88
2016-09-07T08:19:17.628Z,1014.89
2016-09-07T08:20:17.622Z,1014.85
2016-09-07T08:21:17.613Z,1014.87
2016-09-07T08:22:17.607Z,1014.84
2016-09-07T08:23:17.600Z,1014.88
2016-09-07T08:24:17.593Z,1014.86
2016-09-07T08:25:17.586Z,1014.83
2016-09-07T08:26:17.580Z,1014.85
2016-09-07T08:27:17.573Z,1014.85
2016-09-07T08:28:17.564Z,1014.85
2016-09-07T08:29:17.557Z,1014.86
2016-09-07T08:30:17.554Z,1014.88
2016-09-07T08:31:17.546Z,1014.88
2016-09-07T08:32:17.538Z,1014.92
2016-09-07T08:33:17.533Z,1014.84
2016-09-07T08:34:17.526Z,1014.82
2016-09-07T08:35:17.519Z,1014.86
2016-09-07T08:36:17.513Z,1014.84
2016-09-07T08:37:17.506Z,1014.85
2016-09-07T08:38:17.501Z,1014.88
2016-09-07T08:39:17.493Z,1014.9
2016-09-07T08:40:17.487Z,1014.85
2016-09-07T08:41:17.480Z,1014.86
2016-09-07T08:42:17.473Z,1014.87
2016-09-07T08:43:17.466Z,1014.84
2016-09-07T08:44:17.462Z,1014.81
2016-09-07T08:45:17.464Z,1014.8
2016-09-07T08:46:17.449Z,1014.82
2016-09-07T08:47:17.443Z,1014.79
2016-09-07T08:48:17.437Z,1014.83
2016-09-07T08:49:17.431Z,1014.81
2016-09-07T08:50:17.423Z,1014.8
2016-09-07T08:51:17.419Z,1014.79
2016-09-07T08:52:17.413Z,1014.77
2016-09-07T08:53:17.407Z,1014.75
2016-09-07T08:54:17.406Z,1014.79
2016-09-07T08:55:17.394Z,1014.77
2016-09-07T08:56:17.388Z,1014.77
2016-09-07T08:57:17.381Z,1014.78
2016-09-07T08:58:17.378Z,1014.8
2016-09-07T08:59:17.370Z,1014.76
2016-09-07T09:00:17.365Z,1014.77
2016-09-07T09:01:17.357Z,1014.77
2016-09-07T09:02:17.350Z,1014.78
2016-09-07T09:03:17.344Z,1014.76
2016-09-07T09:04:17.341Z,1014.76
2016-09-07T09:05:17.332Z,1014.74
2016-09-07T09:06:17.330Z,1014.73
2016-09-07T09:07:17.319Z,1014.76
2016-09-07T09:08:17.328Z,1014.73
2016-09-07T09:09:17.307Z,1014.72
2016-09-07T09:10:17.301Z,1014.71
2016-09-07T09:11:17.309Z,1014.69
2016-09-07T09:12:17.288Z,1014.65
2016-09-07T09:13:17.283Z,1014.61
2016-09-07T09:14:17.277Z,1014.6
2016-09-07T09:15:17.270Z,1014.58
2016-09-07T09:16:17.265Z,1014.55
2016-09-07T09:17:17.257Z,1014.5
2016-09-07T09:18:17.252Z,1014.49
2016-09-07T09:19:17.246Z,1014.5
2016-09-07T09:20:17.241Z,1014.45
2016-09-07T09:21:17.233Z,1014.46
2016-09-07T09:22:17.232Z,1014.46
2016-09-07T09:23:17.231Z,1014.44
2016-09-07T09:24:17.216Z,1014.42
2016-09-07T09:25:17.211Z,1014.49
2016-09-07T09:26:17.210Z,1014.45
2016-09-07T09:27:17.199Z,1014.45
2016-09-07T09:28:17.191Z,1014.39
2016-09-07T09:29:17.187Z,1014.4
2016-09-07T09:30:17.181Z,1014.34
2016-09-07T09:31:17.172Z,1014.33
2016-09-07T09:32:17.166Z,1014.3
2016-09-07T09:33:17.162Z,1014.28
2016-09-07T09:34:17.156Z,1014.27
2016-09-07T09:35:17.150Z,1014.29
2016-09-07T09:36:17.144Z,1014.27
2016-09-07T09:37:17.138Z,1014.26
2016-09-07T09:38:17.132Z,1014.29
2016-09-07T09:39:17.126Z,1014.28
2016-09-07T09:40:17.119Z,1014.28
2016-09-07T09:41:17.112Z,1014.24
2016-09-07T09:42:17.107Z,1014.23
2016-09-07T09:43:17.102Z,1014.22
2016-09-07T09:44:17.097Z,1014.18
2016-09-07T09:45:17.090Z,1014.16
2016-09-07T09:46:17.086Z,1014.15
2016-09-07T09:47:17.078Z,1014.15
2016-09-07T09:48:17.073Z,1014.16
2016-09-07T09:49:17.066Z,1014.16
2016-09-07T09:50:17.061Z,1014.14
2016-09-07T09:51:17.055Z,1014.08
2016-09-07T09:52:17.049Z,1014.09
2016-09-07T09:53:17.046Z,1014.08
2016-09-07T09:54:17.039Z,1014.1
2016-09-07T09:55:17.032Z,1014.09
2016-09-07T09:56:17.032Z,1014.09
2016-09-07T09:57:17.021Z,1014.05
2016-09-07T09:58:17.017Z,1014.08
2016-09-07T09:59:17.010Z,1014.03
2016-09-07T10:00:17.005Z,1014.01
2016-09-07T10:01:17.003Z,1014.03
2016-09-07T10:02:16.992Z,1014.02
2016-09-07T10:03:16.988Z,1014
2016-09-07T10:04:16.981Z,1014.03
2016-09-07T10:05:16.974Z,1013.99
2016-09-07T10:06:16.970Z,1014
2016-09-07T10:07:16.964Z,1013.98
2016-09-07T10:08:16.958Z,1013.95
2016-09-07T10:09:16.951Z,1013.96
2016-09-07T10:10:16.950Z,1013.93
2016-09-07T10:11:16.942Z,1013.92
2016-09-07T10:12:16.937Z,1013.95
2016-09-07T10:13:16.932Z,1013.87
2016-09-07T10:14:16.925Z,1013.88
2016-09-07T10:15:17.123Z,1013.87
2016-09-07T10:16:16.914Z,1013.85
2016-09-07T10:17:16.911Z,1013.82
2016-09-07T10:18:16.903Z,1013.85
2016-09-07T10:19:16.900Z,1013.81
2016-09-07T10:20:16.894Z,1013.76
2016-09-07T10:21:16.890Z,1013.78
2016-09-07T10:22:16.885Z,1013.72
2016-09-07T10:23:16.881Z,1013.74
2016-09-07T10:24:16.876Z,1013.69
2016-09-07T10:25:16.871Z,1013.67
2016-09-07T10:26:16.864Z,1013.7
2016-09-07T10:27:16.860Z,1013.65
2016-09-07T10:28:16.857Z,1013.63
2016-09-07T10:29:16.850Z,1013.61
2016-09-07T10:30:16.844Z,1013.63
2016-09-07T10:31:16.840Z,1013.61
2016-09-07T10:32:16.834Z,1013.62
2016-09-07T10:33:16.829Z,1013.6
2016-09-07T10:34:16.824Z,1013.61
2016-09-07T10:35:16.824Z,1013.62
2016-09-07T10:36:16.813Z,1013.61
2016-09-07T10:37:16.808Z,1013.6
2016-09-07T10:38:16.802Z,1013.6
2016-09-07T10:39:16.798Z,1013.6
2016-09-07T10:40:16.792Z,1013.62
2016-09-07T10:41:16.786Z,1013.63
2016-09-07T10:42:16.783Z,1013.56
2016-09-07T10:43:16.777Z,1013.56
2016-09-07T10:44:16.773Z,1013.53
2016-09-07T10:45:16.767Z,1013.55
2016-09-07T10:46:16.763Z,1013.49
2016-09-07T10:47:16.757Z,1013.51
2016-09-07T10:48:16.752Z,1013.47
2016-09-07T10:49:16.747Z,1013.47
2016-09-07T10:50:16.743Z,1013.48
2016-09-07T10:51:16.741Z,1013.49
2016-09-07T10:52:16.733Z,1013.48
2016-09-07T10:53:16.732Z,1013.44
2016-09-07T10:54:16.723Z,1013.44
2016-09-07T10:55:16.718Z,1013.4
2016-09-07T10:56:16.713Z,1013.41
2016-09-07T10:57:16.709Z,1013.34
2016-09-07T10:58:16.704Z,1013.39
2016-09-07T10:59:16.698Z,1013.32
2016-09-07T11:00:16.695Z,1013.31
2016-09-07T11:01:16.689Z,1013.27
2016-09-07T11:02:16.685Z,1013.31
2016-09-07T11:03:16.680Z,1013.26
2016-09-07T11:04:16.676Z,1013.3
2016-09-07T11:05:16.669Z,1013.27
2016-09-07T11:06:16.671Z,1013.24
2016-09-07T11:07:16.662Z,1013.23
2016-09-07T11:08:16.665Z,1013.23
2016-09-07T11:09:16.653Z,1013.28
2016-09-07T11:10:16.650Z,1013.3
2016-09-07T11:11:16.644Z,1013.28
2016-09-07T11:12:16.643Z,1013.3
2016-09-07T11:13:16.640Z,1013.28
2016-09-07T11:14:16.638Z,1013.24
2016-09-07T11:15:16.636Z,1013.26
2016-09-07T11:16:16.633Z,1013.28
2016-09-07T11:17:16.632Z,1013.27
2016-09-07T11:18:16.630Z,1013.24
2016-09-07T11:19:16.631Z,1013.27
2016-09-07T11:20:16.629Z,1013.27
2016-09-07T11:21:16.631Z,1013.31
2016-09-07T11:22:16.629Z,1013.27
2016-09-07T11:23:16.631Z,1013.27
2016-09-07T11:24:16.630Z,1013.31
2016-09-07T11:25:16.630Z,1013.31
2016-09-07T11:26:16.634Z,1013.32
2016-09-07T11:27:16.634Z,1013.33
2016-09-07T11:28:16.637Z,1013.33
2016-09-07T11:29:16.639Z,1013.28
2016-09-07T11:30:16.653Z,1013.27
2016-09-07T11:31:16.643Z,1013.21
2016-09-07T11:32:16.648Z,1013.27
2016-09-07T11:33:16.648Z,1013.2
2016-09-07T11:34:16.650Z,1013.17
2016-09-07T11:35:16.654Z,1013.22
2016-09-07T11:36:16.657Z,1013.17
2016-09-07T11:37:16.661Z,1013.18
2016-09-07T11:38:16.663Z,1013.21
2016-09-07T11:39:16.667Z,1013.17
2016-09-07T11:40:16.670Z,1013.17
2016-09-07T11:41:16.674Z,1013.12
2016-09-07T11:42:16.677Z,1013.13
2016-09-07T11:43:16.689Z,1013.21
2016-09-07T11:44:16.689Z,1013.08
2016-09-07T11:45:16.691Z,1013.12
2016-09-07T11:46:16.694Z,1013.02
2016-09-07T11:47:16.698Z,1013.03
2016-09-07T11:48:16.702Z,1013.04
2016-09-07T11:49:16.706Z,1013.04
2016-09-07T11:50:16.710Z,1013.03
2016-09-07T11:51:16.716Z,1013.02
2016-09-07T11:52:16.723Z,1013.02
2016-09-07T11:53:16.725Z,1013.03
2016-09-07T11:54:16.730Z,1013.02
2016-09-07T11:55:16.734Z,1013
2016-09-07T11:56:16.740Z,1012.98
2016-09-07T11:57:16.744Z,1012.98
2016-09-07T11:58:16.751Z,1012.98
2016-09-07T11:59:16.757Z,1012.98
2016-09-07T12:00:16.760Z,1012.93
2016-09-07T12:01:16.766Z,1012.91
2016-09-07T12:02:16.776Z,1012.93
2016-09-07T12:03:16.778Z,1012.85
2016-09-07T12:04:16.782Z,1012.85
2016-09-07T12:05:16.789Z,1012.79
2016-09-07T12:06:16.796Z,1012.8
2016-09-07T12:07:16.802Z,1012.78
2016-09-07T12:08:16.805Z,1012.76